sensor_id;sensor_type;location;lat;lon;timestamp;P1;durP1;ratioP1;P2;durP2;ratioP2
52470;SDS011;38382;53.160;7.026;2022-07-19T00:00:18;12.48;;;6.50;;
52470;SDS011;38382;53.160;7.026;2022-07-19T00:02:49;11.00;;;6.05;;
52470;SDS011;38382;53.160;7.026;2022-07-19T00:05:19;8.85;;;6.05;;
52470;SDS011;38382;53.160;7.026;2022-07-19T00:07:59;12.55;;;6.40;;
52470;SDS011;38382;53.160;7.026;2022-07-19T00:10:28;8.25;;;5.55;;
52470;SDS011;38382;53.160;7.026;2022-07-19T00:12:56;8.77;;;5.65;;
52470;SDS011;38382;53.160;7.026;2022-07-19T00:15:28;12.05;;;6.32;;
52470;SDS011;38382;53.160;7.026;2022-07-19T00:18:00;10.95;;;6.13;;
52470;SDS011;38382;53.160;7.026;2022-07-19T00:20:28;9.40;;;5.72;;
52470;SDS011;38382;53.160;7.026;2022-07-19T00:22:57;9.75;;;5.75;;
52470;SDS011;38382;53.160;7.026;2022-07-19T00:25:22;10.18;;;6.43;;
52470;SDS011;38382;53.160;7.026;2022-07-19T00:27:48;10.50;;;5.95;;
52470;SDS011;38382;53.160;7.026;2022-07-19T00:30:22;10.23;;;6.20;;
52470;SDS011;38382;53.160;7.026;2022-07-19T00:32:48;11.60;;;5.97;;
52470;SDS011;38382;53.160;7.026;2022-07-19T00:35:16;9.05;;;5.30;;
52470;SDS011;38382;53.160;7.026;2022-07-19T00:37:43;11.23;;;6.50;;
52470;SDS011;38382;53.160;7.026;2022-07-19T00:40:42;7.78;;;5.55;;
52470;SDS011;38382;53.160;7.026;2022-07-19T00:43:12;9.10;;;5.82;;
52470;SDS011;38382;53.160;7.026;2022-07-19T00:45:41;10.35;;;5.55;;
52470;SDS011;38382;53.160;7.026;2022-07-19T00:48:10;8.77;;;5.85;;
52470;SDS011;38382;53.160;7.026;2022-07-19T00:50:36;9.02;;;6.20;;
52470;SDS011;38382;53.160;7.026;2022-07-19T00:53:02;8.75;;;5.80;;
52470;SDS011;38382;53.160;7.026;2022-07-19T00:55:32;8.00;;;5.55;;
52470;SDS011;38382;53.160;7.026;2022-07-19T00:58:03;9.95;;;6.00;;
52470;SDS011;38382;53.160;7.026;2022-07-19T01:00:30;11.07;;;5.70;;
52470;SDS011;38382;53.160;7.026;2022-07-19T01:02:58;9.13;;;5.60;;
52470;SDS011;38382;53.160;7.026;2022-07-19T01:05:25;8.30;;;5.70;;
52470;SDS011;38382;53.160;7.026;2022-07-19T01:07:51;12.00;;;6.90;;
52470;SDS011;38382;53.160;7.026;2022-07-19T01:10:19;14.38;;;6.88;;
52470;SDS011;38382;53.160;7.026;2022-07-19T01:12:45;11.45;;;6.20;;
52470;SDS011;38382;53.160;7.026;2022-07-19T01:17:44;10.40;;;6.53;;
52470;SDS011;38382;53.160;7.026;2022-07-19T01:20:13;9.63;;;5.90;;
52470;SDS011;38382;53.160;7.026;2022-07-19T01:22:40;9.77;;;5.60;;
52470;SDS011;38382;53.160;7.026;2022-07-19T01:25:09;9.10;;;6.20;;
52470;SDS011;38382;53.160;7.026;2022-07-19T01:27:39;11.90;;;6.55;;
52470;SDS011;38382;53.160;7.026;2022-07-19T01:30:17;11.38;;;6.30;;
52470;SDS011;38382;53.160;7.026;2022-07-19T01:32:45;13.25;;;6.68;;
52470;SDS011;38382;53.160;7.026;2022-07-19T01:35:18;10.90;;;6.68;;
52470;SDS011;38382;53.160;7.026;2022-07-19T01:38:18;10.07;;;6.88;;
52470;SDS011;38382;53.160;7.026;2022-07-19T01:40:43;11.02;;;6.15;;
52470;SDS011;38382;53.160;7.026;2022-07-19T01:43:09;13.93;;;7.55;;
52470;SDS011;38382;53.160;7.026;2022-07-19T01:45:35;12.15;;;6.88;;
52470;SDS011;38382;53.160;7.026;2022-07-19T01:48:01;11.07;;;7.10;;
52470;SDS011;38382;53.160;7.026;2022-07-19T01:50:29;10.57;;;6.38;;
52470;SDS011;38382;53.160;7.026;2022-07-19T01:52:55;11.88;;;6.40;;
52470;SDS011;38382;53.160;7.026;2022-07-19T01:55:21;8.25;;;6.40;;
52470;SDS011;38382;53.160;7.026;2022-07-19T01:57:48;8.57;;;6.47;;
52470;SDS011;38382;53.160;7.026;2022-07-19T02:00:14;9.82;;;7.03;;
52470;SDS011;38382;53.160;7.026;2022-07-19T02:02:43;13.73;;;6.88;;
52470;SDS011;38382;53.160;7.026;2022-07-19T02:05:30;10.50;;;6.25;;
52470;SDS011;38382;53.160;7.026;2022-07-19T02:07:55;8.73;;;6.40;;
52470;SDS011;38382;53.160;7.026;2022-07-19T02:10:24;9.60;;;6.47;;
52470;SDS011;38382;53.160;7.026;2022-07-19T02:12:50;9.40;;;6.15;;
52470;SDS011;38382;53.160;7.026;2022-07-19T02:15:15;8.25;;;6.00;;
52470;SDS011;38382;53.160;7.026;2022-07-19T02:17:44;9.73;;;6.75;;
52470;SDS011;38382;53.160;7.026;2022-07-19T02:20:10;8.95;;;6.38;;
52470;SDS011;38382;53.160;7.026;2022-07-19T02:22:40;11.32;;;6.90;;
52470;SDS011;38382;53.160;7.026;2022-07-19T02:25:06;12.43;;;7.30;;
52470;SDS011;38382;53.160;7.026;2022-07-19T02:27:32;10.82;;;6.90;;
52470;SDS011;38382;53.160;7.026;2022-07-19T02:29:58;10.23;;;7.20;;
52470;SDS011;38382;53.160;7.026;2022-07-19T02:32:24;13.45;;;7.80;;
52470;SDS011;38382;53.160;7.026;2022-07-19T02:34:49;12.57;;;7.35;;
52470;SDS011;38382;53.160;7.026;2022-07-19T02:37:15;13.63;;;7.35;;
52470;SDS011;38382;53.160;7.026;2022-07-19T02:39:41;11.15;;;7.75;;
52470;SDS011;38382;53.160;7.026;2022-07-19T02:42:06;13.63;;;9.13;;
52470;SDS011;38382;53.160;7.026;2022-07-19T02:44:32;10.23;;;6.85;;
52470;SDS011;38382;53.160;7.026;2022-07-19T02:46:58;10.35;;;7.45;;
52470;SDS011;38382;53.160;7.026;2022-07-19T02:58:02;11.23;;;6.88;;
52470;SDS011;38382;53.160;7.026;2022-07-19T03:00:28;10.20;;;7.43;;
52470;SDS011;38382;53.160;7.026;2022-07-19T03:02:54;11.27;;;7.40;;
52470;SDS011;38382;53.160;7.026;2022-07-19T03:05:19;13.65;;;8.02;;
52470;SDS011;38382;53.160;7.026;2022-07-19T03:07:45;11.32;;;7.82;;
52470;SDS011;38382;53.160;7.026;2022-07-19T03:10:11;10.43;;;7.82;;
52470;SDS011;38382;53.160;7.026;2022-07-19T03:12:37;10.35;;;6.70;;
52470;SDS011;38382;53.160;7.026;2022-07-19T03:15:03;8.43;;;6.10;;
52470;SDS011;38382;53.160;7.026;2022-07-19T03:17:29;9.10;;;5.75;;
52470;SDS011;38382;53.160;7.026;2022-07-19T03:19:55;11.15;;;6.97;;
52470;SDS011;38382;53.160;7.026;2022-07-19T03:22:21;13.52;;;7.30;;
52470;SDS011;38382;53.160;7.026;2022-07-19T03:24:46;12.27;;;7.60;;
52470;SDS011;38382;53.160;7.026;2022-07-19T03:27:12;12.57;;;7.47;;
52470;SDS011;38382;53.160;7.026;2022-07-19T03:29:38;13.30;;;8.18;;
52470;SDS011;38382;53.160;7.026;2022-07-19T03:32:08;12.48;;;8.13;;
52470;SDS011;38382;53.160;7.026;2022-07-19T03:34:34;14.90;;;7.63;;
52470;SDS011;38382;53.160;7.026;2022-07-19T03:36:59;9.70;;;7.28;;
52470;SDS011;38382;53.160;7.026;2022-07-19T03:39:25;11.55;;;6.97;;
52470;SDS011;38382;53.160;7.026;2022-07-19T03:41:51;12.57;;;6.90;;
52470;SDS011;38382;53.160;7.026;2022-07-19T03:44:16;11.43;;;6.60;;
52470;SDS011;38382;53.160;7.026;2022-07-19T03:46:42;13.18;;;7.00;;
52470;SDS011;38382;53.160;7.026;2022-07-19T03:49:08;13.95;;;7.63;;
52470;SDS011;38382;53.160;7.026;2022-07-19T03:51:33;9.82;;;6.85;;
52470;SDS011;38382;53.160;7.026;2022-07-19T03:53:59;11.00;;;7.18;;
52470;SDS011;38382;53.160;7.026;2022-07-19T03:56:25;15.05;;;7.80;;
52470;SDS011;38382;53.160;7.026;2022-07-19T03:58:50;10.38;;;6.50;;
52470;SDS011;38382;53.160;7.026;2022-07-19T04:01:16;10.35;;;7.43;;
52470;SDS011;38382;53.160;7.026;2022-07-19T04:03:42;9.35;;;6.80;;
52470;SDS011;38382;53.160;7.026;2022-07-19T04:06:09;12.10;;;7.15;;
52470;SDS011;38382;53.160;7.026;2022-07-19T04:08:36;12.93;;;6.97;;
52470;SDS011;38382;53.160;7.026;2022-07-19T04:11:03;9.43;;;5.75;;
52470;SDS011;38382;53.160;7.026;2022-07-19T04:13:31;11.70;;;6.55;;
52470;SDS011;38382;53.160;7.026;2022-07-19T04:15:58;12.98;;;8.35;;
52470;SDS011;38382;53.160;7.026;2022-07-19T04:18:24;9.85;;;5.97;;
52470;SDS011;38382;53.160;7.026;2022-07-19T04:20:49;9.25;;;5.70;;
52470;SDS011;38382;53.160;7.026;2022-07-19T04:23:15;13.05;;;7.60;;
52470;SDS011;38382;53.160;7.026;2022-07-19T04:25:41;9.82;;;7.22;;
52470;SDS011;38382;53.160;7.026;2022-07-19T04:28:06;11.68;;;7.95;;
52470;SDS011;38382;53.160;7.026;2022-07-19T04:30:32;13.27;;;7.47;;
52470;SDS011;38382;53.160;7.026;2022-07-19T04:32:58;11.90;;;7.15;;
52470;SDS011;38382;53.160;7.026;2022-07-19T04:35:25;9.32;;;6.90;;
52470;SDS011;38382;53.160;7.026;2022-07-19T04:37:51;13.98;;;7.38;;
52470;SDS011;38382;53.160;7.026;2022-07-19T04:40:16;11.05;;;7.43;;
52470;SDS011;38382;53.160;7.026;2022-07-19T04:42:42;11.10;;;7.80;;
52470;SDS011;38382;53.160;7.026;2022-07-19T04:45:08;10.48;;;5.93;;
52470;SDS011;38382;53.160;7.026;2022-07-19T04:47:34;11.00;;;5.90;;
52470;SDS011;38382;53.160;7.026;2022-07-19T04:50:00;12.48;;;6.32;;
52470;SDS011;38382;53.160;7.026;2022-07-19T04:52:26;11.25;;;7.18;;
52470;SDS011;38382;53.160;7.026;2022-07-19T04:54:52;10.43;;;6.80;;
52470;SDS011;38382;53.160;7.026;2022-07-19T04:57:17;13.45;;;7.60;;
52470;SDS011;38382;53.160;7.026;2022-07-19T04:59:43;9.52;;;6.30;;
52470;SDS011;38382;53.160;7.026;2022-07-19T05:02:15;11.10;;;6.47;;
52470;SDS011;38382;53.160;7.026;2022-07-19T05:04:40;11.48;;;7.13;;
52470;SDS011;38382;53.160;7.026;2022-07-19T05:07:06;13.85;;;7.40;;
52470;SDS011;38382;53.160;7.026;2022-07-19T05:09:32;10.32;;;6.47;;
52470;SDS011;38382;53.160;7.026;2022-07-19T05:11:57;12.00;;;6.97;;
52470;SDS011;38382;53.160;7.026;2022-07-19T05:14:23;12.73;;;7.03;;
52470;SDS011;38382;53.160;7.026;2022-07-19T05:16:49;11.43;;;7.43;;
52470;SDS011;38382;53.160;7.026;2022-07-19T05:19:16;10.50;;;7.47;;
52470;SDS011;38382;53.160;7.026;2022-07-19T05:21:42;18.35;;;7.65;;
52470;SDS011;38382;53.160;7.026;2022-07-19T05:26:37;12.25;;;7.38;;
52470;SDS011;38382;53.160;7.026;2022-07-19T05:29:03;11.18;;;7.93;;
52470;SDS011;38382;53.160;7.026;2022-07-19T05:31:29;12.15;;;8.13;;
52470;SDS011;38382;53.160;7.026;2022-07-19T05:33:55;13.20;;;7.90;;
52470;SDS011;38382;53.160;7.026;2022-07-19T05:36:20;11.68;;;7.55;;
52470;SDS011;38382;53.160;7.026;2022-07-19T05:38:46;10.82;;;7.63;;
52470;SDS011;38382;53.160;7.026;2022-07-19T05:41:18;12.18;;;7.68;;
52470;SDS011;38382;53.160;7.026;2022-07-19T05:43:47;13.38;;;7.25;;
52470;SDS011;38382;53.160;7.026;2022-07-19T05:46:13;13.60;;;8.45;;
52470;SDS011;38382;53.160;7.026;2022-07-19T05:48:39;11.70;;;7.68;;
52470;SDS011;38382;53.160;7.026;2022-07-19T05:51:05;13.00;;;7.57;;
52470;SDS011;38382;53.160;7.026;2022-07-19T05:53:31;13.43;;;8.20;;
52470;SDS011;38382;53.160;7.026;2022-07-19T05:55:57;13.65;;;7.35;;
52470;SDS011;38382;53.160;7.026;2022-07-19T05:58:22;12.02;;;6.88;;
52470;SDS011;38382;53.160;7.026;2022-07-19T06:00:49;13.90;;;7.53;;
52470;SDS011;38382;53.160;7.026;2022-07-19T06:03:33;12.23;;;7.32;;
52470;SDS011;38382;53.160;7.026;2022-07-19T06:05:59;11.20;;;6.68;;
52470;SDS011;38382;53.160;7.026;2022-07-19T06:08:26;16.55;;;7.10;;
52470;SDS011;38382;53.160;7.026;2022-07-19T06:10:52;12.48;;;7.07;;
52470;SDS011;38382;53.160;7.026;2022-07-19T06:13:18;19.52;;;7.65;;
52470;SDS011;38382;53.160;7.026;2022-07-19T06:15:44;13.00;;;6.55;;
52470;SDS011;38382;53.160;7.026;2022-07-19T06:18:09;13.98;;;7.05;;
52470;SDS011;38382;53.160;7.026;2022-07-19T06:20:35;17.35;;;7.68;;
52470;SDS011;38382;53.160;7.026;2022-07-19T06:23:01;12.23;;;6.30;;
52470;SDS011;38382;53.160;7.026;2022-07-19T06:25:27;10.90;;;6.03;;
52470;SDS011;38382;53.160;7.026;2022-07-19T06:27:53;11.18;;;5.90;;
52470;SDS011;38382;53.160;7.026;2022-07-19T06:30:19;13.13;;;5.97;;
52470;SDS011;38382;53.160;7.026;2022-07-19T06:32:45;10.02;;;5.93;;
52470;SDS011;38382;53.160;7.026;2022-07-19T06:35:10;7.95;;;5.18;;
52470;SDS011;38382;53.160;7.026;2022-07-19T06:37:36;11.07;;;5.18;;
52470;SDS011;38382;53.160;7.026;2022-07-19T06:40:02;25.67;;;6.78;;
52470;SDS011;38382;53.160;7.026;2022-07-19T06:42:29;19.15;;;7.05;;
52470;SDS011;38382;53.160;7.026;2022-07-19T06:44:55;14.05;;;5.65;;
52470;SDS011;38382;53.160;7.026;2022-07-19T06:47:21;13.55;;;5.85;;
52470;SDS011;38382;53.160;7.026;2022-07-19T06:49:47;12.63;;;5.07;;
52470;SDS011;38382;53.160;7.026;2022-07-19T06:52:13;9.65;;;4.80;;
52470;SDS011;38382;53.160;7.026;2022-07-19T06:57:09;12.48;;;5.10;;
52470;SDS011;38382;53.160;7.026;2022-07-19T06:59:35;10.75;;;4.65;;
52470;SDS011;38382;53.160;7.026;2022-07-19T07:02:01;8.68;;;4.57;;
52470;SDS011;38382;53.160;7.026;2022-07-19T07:04:27;9.02;;;4.97;;
52470;SDS011;38382;53.160;7.026;2022-07-19T07:06:52;10.32;;;4.43;;
52470;SDS011;38382;53.160;7.026;2022-07-19T07:09:18;9.15;;;4.80;;
52470;SDS011;38382;53.160;7.026;2022-07-19T07:11:44;9.50;;;4.70;;
52470;SDS011;38382;53.160;7.026;2022-07-19T07:14:10;8.48;;;4.90;;
52470;SDS011;38382;53.160;7.026;2022-07-19T07:16:38;10.25;;;4.97;;
52470;SDS011;38382;53.160;7.026;2022-07-19T07:19:04;8.93;;;4.63;;
52470;SDS011;38382;53.160;7.026;2022-07-19T07:21:30;9.40;;;4.50;;
52470;SDS011;38382;53.160;7.026;2022-07-19T07:24:00;15.90;;;4.82;;
52470;SDS011;38382;53.160;7.026;2022-07-19T07:26:26;8.07;;;4.30;;
52470;SDS011;38382;53.160;7.026;2022-07-19T07:28:52;9.68;;;4.93;;
52470;SDS011;38382;53.160;7.026;2022-07-19T07:31:18;11.02;;;4.40;;
52470;SDS011;38382;53.160;7.026;2022-07-19T07:33:44;8.68;;;4.45;;
52470;SDS011;38382;53.160;7.026;2022-07-19T07:36:10;7.82;;;4.40;;
52470;SDS011;38382;53.160;7.026;2022-07-19T07:38:36;9.77;;;4.68;;
52470;SDS011;38382;53.160;7.026;2022-07-19T07:41:02;7.85;;;4.38;;
52470;SDS011;38382;53.160;7.026;2022-07-19T07:43:29;9.13;;;4.30;;
52470;SDS011;38382;53.160;7.026;2022-07-19T07:45:55;7.50;;;3.85;;
52470;SDS011;38382;53.160;7.026;2022-07-19T07:48:20;10.50;;;4.30;;
52470;SDS011;38382;53.160;7.026;2022-07-19T07:50:46;6.90;;;3.85;;
52470;SDS011;38382;53.160;7.026;2022-07-19T07:53:12;7.50;;;3.72;;
52470;SDS011;38382;53.160;7.026;2022-07-19T07:55:38;7.35;;;4.00;;
52470;SDS011;38382;53.160;7.026;2022-07-19T07:58:07;8.05;;;4.00;;
52470;SDS011;38382;53.160;7.026;2022-07-19T08:00:35;9.18;;;3.95;;
52470;SDS011;38382;53.160;7.026;2022-07-19T08:03:01;6.28;;;4.05;;
52470;SDS011;38382;53.160;7.026;2022-07-19T08:05:28;8.23;;;3.95;;
52470;SDS011;38382;53.160;7.026;2022-07-19T08:07:54;9.88;;;4.10;;
52470;SDS011;38382;53.160;7.026;2022-07-19T08:10:23;5.55;;;3.90;;
52470;SDS011;38382;53.160;7.026;2022-07-19T08:12:53;12.02;;;4.00;;
52470;SDS011;38382;53.160;7.026;2022-07-19T08:15:19;9.55;;;3.95;;
52470;SDS011;38382;53.160;7.026;2022-07-19T08:17:48;6.50;;;3.65;;
52470;SDS011;38382;53.160;7.026;2022-07-19T08:20:14;6.53;;;3.80;;
52470;SDS011;38382;53.160;7.026;2022-07-19T08:22:40;8.18;;;3.88;;
52470;SDS011;38382;53.160;7.026;2022-07-19T08:25:10;7.18;;;3.97;;
52470;SDS011;38382;53.160;7.026;2022-07-19T08:27:40;5.85;;;4.00;;
52470;SDS011;38382;53.160;7.026;2022-07-19T08:30:06;9.07;;;3.70;;
52470;SDS011;38382;53.160;7.026;2022-07-19T08:32:32;6.07;;;3.80;;
52470;SDS011;38382;53.160;7.026;2022-07-19T08:34:57;7.07;;;3.55;;
52470;SDS011;38382;53.160;7.026;2022-07-19T08:37:23;7.78;;;3.67;;
52470;SDS011;38382;53.160;7.026;2022-07-19T08:39:49;8.65;;;3.60;;
52470;SDS011;38382;53.160;7.026;2022-07-19T08:42:17;6.13;;;3.40;;
52470;SDS011;38382;53.160;7.026;2022-07-19T08:44:46;6.45;;;3.40;;
52470;SDS011;38382;53.160;7.026;2022-07-19T08:47:17;6.47;;;3.70;;
52470;SDS011;38382;53.160;7.026;2022-07-19T08:49:43;8.70;;;3.67;;
52470;SDS011;38382;53.160;7.026;2022-07-19T08:52:12;6.35;;;3.25;;
52470;SDS011;38382;53.160;7.026;2022-07-19T08:54:38;6.15;;;3.22;;
52470;SDS011;38382;53.160;7.026;2022-07-19T08:57:05;6.07;;;3.35;;
52470;SDS011;38382;53.160;7.026;2022-07-19T08:59:49;6.43;;;3.67;;
52470;SDS011;38382;53.160;7.026;2022-07-19T09:02:16;7.50;;;3.50;;
52470;SDS011;38382;53.160;7.026;2022-07-19T09:04:58;7.00;;;3.80;;
52470;SDS011;38382;53.160;7.026;2022-07-19T09:07:25;7.13;;;3.60;;
52470;SDS011;38382;53.160;7.026;2022-07-19T09:09:53;8.25;;;3.33;;
52470;SDS011;38382;53.160;7.026;2022-07-19T09:15:45;7.25;;;3.40;;
52470;SDS011;38382;53.160;7.026;2022-07-19T09:21:23;6.10;;;3.17;;
52470;SDS011;38382;53.160;7.026;2022-07-19T09:24:40;7.65;;;3.30;;
52470;SDS011;38382;53.160;7.026;2022-07-19T09:27:56;8.20;;;3.10;;
52470;SDS011;38382;53.160;7.026;2022-07-19T09:30:40;5.03;;;3.17;;
52470;SDS011;38382;53.160;7.026;2022-07-19T09:33:59;5.07;;;3.40;;
52470;SDS011;38382;53.160;7.026;2022-07-19T09:37:08;5.22;;;3.30;;
52470;SDS011;38382;53.160;7.026;2022-07-19T09:40:07;7.45;;;3.28;;
52470;SDS011;38382;53.160;7.026;2022-07-19T09:42:45;5.03;;;2.70;;
52470;SDS011;38382;53.160;7.026;2022-07-19T09:45:54;5.90;;;2.50;;
52470;SDS011;38382;53.160;7.026;2022-07-19T09:49:12;5.70;;;2.90;;
52470;SDS011;38382;53.160;7.026;2022-07-19T09:52:50;6.72;;;2.88;;
52470;SDS011;38382;53.160;7.026;2022-07-19T09:58:51;4.65;;;2.60;;
52470;SDS011;38382;53.160;7.026;2022-07-19T10:01:44;5.28;;;2.70;;
52470;SDS011;38382;53.160;7.026;2022-07-19T10:05:15;9.20;;;2.63;;
52470;SDS011;38382;53.160;7.026;2022-07-19T10:07:42;3.80;;;2.35;;
52470;SDS011;38382;53.160;7.026;2022-07-19T10:10:12;4.68;;;2.20;;
52470;SDS011;38382;53.160;7.026;2022-07-19T10:12:41;4.53;;;2.58;;
52470;SDS011;38382;53.160;7.026;2022-07-19T10:15:12;7.50;;;2.60;;
52470;SDS011;38382;53.160;7.026;2022-07-19T10:20:58;4.75;;;2.60;;
52470;SDS011;38382;53.160;7.026;2022-07-19T10:37:41;4.93;;;2.53;;
52470;SDS011;38382;53.160;7.026;2022-07-19T10:43:33;4.63;;;2.50;;
52470;SDS011;38382;53.160;7.026;2022-07-19T11:15:30;5.25;;;2.30;;
52470;SDS011;38382;53.160;7.026;2022-07-19T11:18:51;6.38;;;2.17;;
52470;SDS011;38382;53.160;7.026;2022-07-19T11:25:39;6.75;;;2.40;;
52470;SDS011;38382;53.160;7.026;2022-07-19T11:28:05;7.78;;;2.40;;
52470;SDS011;38382;53.160;7.026;2022-07-19T11:30:32;4.85;;;2.20;;
52470;SDS011;38382;53.160;7.026;2022-07-19T11:33:55;4.47;;;2.45;;
52470;SDS011;38382;53.160;7.026;2022-07-19T11:36:41;3.70;;;2.03;;
52470;SDS011;38382;53.160;7.026;2022-07-19T11:39:15;7.10;;;2.03;;
52470;SDS011;38382;53.160;7.026;2022-07-19T11:45:19;4.30;;;2.00;;
52470;SDS011;38382;53.160;7.026;2022-07-19T11:48:03;5.25;;;2.17;;
52470;SDS011;38382;53.160;7.026;2022-07-19T11:50:29;4.75;;;2.00;;
52470;SDS011;38382;53.160;7.026;2022-07-19T11:52:56;4.25;;;2.10;;
52470;SDS011;38382;53.160;7.026;2022-07-19T11:55:23;4.32;;;2.00;;
52470;SDS011;38382;53.160;7.026;2022-07-19T12:25:16;7.80;;;1.95;;
52470;SDS011;38382;53.160;7.026;2022-07-19T12:27:59;3.22;;;1.85;;
52470;SDS011;38382;53.160;7.026;2022-07-19T12:30:25;3.92;;;1.77;;
52470;SDS011;38382;53.160;7.026;2022-07-19T12:32:52;3.03;;;1.88;;
52470;SDS011;38382;53.160;7.026;2022-07-19T12:35:18;4.35;;;1.90;;
52470;SDS011;38382;53.160;7.026;2022-07-19T12:37:46;3.15;;;1.73;;
52470;SDS011;38382;53.160;7.026;2022-07-19T12:40:22;4.90;;;1.80;;
52470;SDS011;38382;53.160;7.026;2022-07-19T12:43:07;5.30;;;1.65;;
52470;SDS011;38382;53.160;7.026;2022-07-19T12:45:42;3.67;;;1.90;;
52470;SDS011;38382;53.160;7.026;2022-07-19T12:48:14;3.85;;;1.92;;
52470;SDS011;38382;53.160;7.026;2022-07-19T12:50:42;4.15;;;1.90;;
52470;SDS011;38382;53.160;7.026;2022-07-19T12:53:16;5.78;;;2.10;;
52470;SDS011;38382;53.160;7.026;2022-07-19T12:55:42;3.95;;;1.90;;
52470;SDS011;38382;53.160;7.026;2022-07-19T12:58:09;4.88;;;1.88;;
52470;SDS011;38382;53.160;7.026;2022-07-19T13:00:39;2.97;;;1.70;;
52470;SDS011;38382;53.160;7.026;2022-07-19T13:03:10;2.78;;;1.90;;
52470;SDS011;38382;53.160;7.026;2022-07-19T13:05:38;7.38;;;1.90;;
52470;SDS011;38382;53.160;7.026;2022-07-19T13:08:04;4.22;;;1.80;;
52470;SDS011;38382;53.160;7.026;2022-07-19T13:10:30;3.20;;;1.80;;
52470;SDS011;38382;53.160;7.026;2022-07-19T13:12:55;5.60;;;1.90;;
52470;SDS011;38382;53.160;7.026;2022-07-19T13:15:21;4.22;;;1.83;;
52470;SDS011;38382;53.160;7.026;2022-07-19T13:17:47;5.90;;;1.90;;
52470;SDS011;38382;53.160;7.026;2022-07-19T13:20:13;5.75;;;1.98;;
52470;SDS011;38382;53.160;7.026;2022-07-19T13:22:40;4.63;;;2.10;;
52470;SDS011;38382;53.160;7.026;2022-07-19T13:25:06;3.67;;;1.80;;
52470;SDS011;38382;53.160;7.026;2022-07-19T13:27:35;4.38;;;1.90;;
52470;SDS011;38382;53.160;7.026;2022-07-19T13:30:01;4.97;;;1.80;;
52470;SDS011;38382;53.160;7.026;2022-07-19T13:32:26;5.60;;;2.00;;
52470;SDS011;38382;53.160;7.026;2022-07-19T13:34:52;4.53;;;1.75;;
52470;SDS011;38382;53.160;7.026;2022-07-19T13:37:18;3.75;;;1.92;;
52470;SDS011;38382;53.160;7.026;2022-07-19T13:39:44;3.92;;;2.00;;
52470;SDS011;38382;53.160;7.026;2022-07-19T13:42:09;4.85;;;1.73;;
52470;SDS011;38382;53.160;7.026;2022-07-19T13:44:35;5.10;;;1.92;;
52470;SDS011;38382;53.160;7.026;2022-07-19T13:47:01;2.90;;;1.98;;
52470;SDS011;38382;53.160;7.026;2022-07-19T13:49:27;4.63;;;2.00;;
52470;SDS011;38382;53.160;7.026;2022-07-19T13:51:52;4.20;;;1.70;;
52470;SDS011;38382;53.160;7.026;2022-07-19T13:56:47;7.82;;;2.22;;
52470;SDS011;38382;53.160;7.026;2022-07-19T13:59:13;4.40;;;1.80;;
52470;SDS011;38382;53.160;7.026;2022-07-19T14:01:39;4.03;;;1.70;;
52470;SDS011;38382;53.160;7.026;2022-07-19T14:04:04;3.92;;;2.00;;
52470;SDS011;38382;53.160;7.026;2022-07-19T14:06:30;5.10;;;1.85;;
52470;SDS011;38382;53.160;7.026;2022-07-19T14:08:56;4.78;;;2.00;;
52470;SDS011;38382;53.160;7.026;2022-07-19T14:11:22;4.43;;;1.90;;
52470;SDS011;38382;53.160;7.026;2022-07-19T14:13:48;4.25;;;1.90;;
52470;SDS011;38382;53.160;7.026;2022-07-19T14:16:13;6.85;;;2.00;;
52470;SDS011;38382;53.160;7.026;2022-07-19T14:18:39;4.68;;;1.65;;
52470;SDS011;38382;53.160;7.026;2022-07-19T14:21:04;4.30;;;1.88;;
52470;SDS011;38382;53.160;7.026;2022-07-19T14:23:30;3.88;;;1.98;;
52470;SDS011;38382;53.160;7.026;2022-07-19T14:25:56;3.72;;;1.90;;
52470;SDS011;38382;53.160;7.026;2022-07-19T14:28:22;3.47;;;1.90;;
52470;SDS011;38382;53.160;7.026;2022-07-19T14:30:48;5.10;;;2.00;;
52470;SDS011;38382;53.160;7.026;2022-07-19T14:33:14;6.30;;;1.92;;
52470;SDS011;38382;53.160;7.026;2022-07-19T14:35:40;5.68;;;1.90;;
52470;SDS011;38382;53.160;7.026;2022-07-19T14:38:06;4.57;;;1.80;;
52470;SDS011;38382;53.160;7.026;2022-07-19T14:40:32;4.53;;;1.92;;
52470;SDS011;38382;53.160;7.026;2022-07-19T14:42:57;4.43;;;1.90;;
52470;SDS011;38382;53.160;7.026;2022-07-19T14:45:23;6.03;;;2.08;;
52470;SDS011;38382;53.160;7.026;2022-07-19T14:47:49;4.82;;;2.20;;
52470;SDS011;38382;53.160;7.026;2022-07-19T14:50:15;5.65;;;2.00;;
52470;SDS011;38382;53.160;7.026;2022-07-19T14:52:41;2.88;;;1.80;;
52470;SDS011;38382;53.160;7.026;2022-07-19T14:55:08;3.53;;;1.92;;
52470;SDS011;38382;53.160;7.026;2022-07-19T14:57:35;6.90;;;1.83;;
52470;SDS011;38382;53.160;7.026;2022-07-19T15:00:02;3.70;;;1.88;;
52470;SDS011;38382;53.160;7.026;2022-07-19T15:02:29;4.75;;;1.80;;
52470;SDS011;38382;53.160;7.026;2022-07-19T15:04:56;7.60;;;1.88;;
52470;SDS011;38382;53.160;7.026;2022-07-19T15:07:22;2.88;;;1.70;;
52470;SDS011;38382;53.160;7.026;2022-07-19T15:09:48;4.43;;;1.90;;
52470;SDS011;38382;53.160;7.026;2022-07-19T15:12:13;5.50;;;1.90;;
52470;SDS011;38382;53.160;7.026;2022-07-19T15:14:39;6.32;;;2.22;;
52470;SDS011;38382;53.160;7.026;2022-07-19T15:17:04;6.15;;;2.28;;
52470;SDS011;38382;53.160;7.026;2022-07-19T15:19:30;5.13;;;2.00;;
52470;SDS011;38382;53.160;7.026;2022-07-19T15:21:56;9.27;;;2.10;;
52470;SDS011;38382;53.160;7.026;2022-07-19T15:24:22;4.50;;;2.08;;
52470;SDS011;38382;53.160;7.026;2022-07-19T15:26:48;4.30;;;2.00;;
52470;SDS011;38382;53.160;7.026;2022-07-19T15:29:14;5.35;;;1.80;;
52470;SDS011;38382;53.160;7.026;2022-07-19T15:31:43;7.80;;;2.65;;
52470;SDS011;38382;53.160;7.026;2022-07-19T15:34:09;4.32;;;1.90;;
52470;SDS011;38382;53.160;7.026;2022-07-19T15:36:35;4.80;;;2.20;;
52470;SDS011;38382;53.160;7.026;2022-07-19T15:39:02;5.20;;;1.83;;
52470;SDS011;38382;53.160;7.026;2022-07-19T15:41:28;4.50;;;1.90;;
52470;SDS011;38382;53.160;7.026;2022-07-19T15:43:56;5.63;;;2.00;;
52470;SDS011;38382;53.160;7.026;2022-07-19T15:46:26;6.53;;;2.05;;
52470;SDS011;38382;53.160;7.026;2022-07-19T15:48:54;4.85;;;1.95;;
52470;SDS011;38382;53.160;7.026;2022-07-19T15:51:25;6.28;;;2.00;;
52470;SDS011;38382;53.160;7.026;2022-07-19T15:53:52;3.35;;;1.80;;
52470;SDS011;38382;53.160;7.026;2022-07-19T15:56:17;4.85;;;2.22;;
52470;SDS011;38382;53.160;7.026;2022-07-19T15:58:43;5.15;;;2.38;;
52470;SDS011;38382;53.160;7.026;2022-07-19T16:01:09;7.90;;;2.33;;
52470;SDS011;38382;53.160;7.026;2022-07-19T16:03:34;4.40;;;2.20;;
52470;SDS011;38382;53.160;7.026;2022-07-19T16:06:00;6.82;;;2.20;;
52470;SDS011;38382;53.160;7.026;2022-07-19T16:08:26;3.53;;;1.80;;
52470;SDS011;38382;53.160;7.026;2022-07-19T16:10:52;3.17;;;1.80;;
52470;SDS011;38382;53.160;7.026;2022-07-19T16:13:18;3.35;;;1.80;;
52470;SDS011;38382;53.160;7.026;2022-07-19T16:15:43;6.10;;;1.92;;
52470;SDS011;38382;53.160;7.026;2022-07-19T16:18:09;5.40;;;1.80;;
52470;SDS011;38382;53.160;7.026;2022-07-19T16:20:35;3.35;;;1.77;;
52470;SDS011;38382;53.160;7.026;2022-07-19T16:23:00;10.07;;;2.10;;
52470;SDS011;38382;53.160;7.026;2022-07-19T16:25:26;3.00;;;1.75;;
52470;SDS011;38382;53.160;7.026;2022-07-19T16:27:52;5.57;;;2.00;;
52470;SDS011;38382;53.160;7.026;2022-07-19T16:30:18;3.22;;;1.77;;
52470;SDS011;38382;53.160;7.026;2022-07-19T16:32:44;4.13;;;1.50;;
52470;SDS011;38382;53.160;7.026;2022-07-19T16:35:10;3.95;;;2.17;;
52470;SDS011;38382;53.160;7.026;2022-07-19T16:37:35;6.15;;;2.28;;
52470;SDS011;38382;53.160;7.026;2022-07-19T16:40:05;4.75;;;1.98;;
52470;SDS011;38382;53.160;7.026;2022-07-19T16:42:32;4.82;;;1.83;;
52470;SDS011;38382;53.160;7.026;2022-07-19T16:44:58;3.95;;;1.90;;
52470;SDS011;38382;53.160;7.026;2022-07-19T16:47:25;5.95;;;2.22;;